sensor_id;sensor_type;location;lat;lon;timestamp;temperature;humidity
913;DHT22;443;51.448;7.028;2022-10-26T00:01:22;15.90;86.90
913;DHT22;443;51.448;7.028;2022-10-26T00:03:49;15.90;86.40
913;DHT22;443;51.448;7.028;2022-10-26T00:06:17;15.90;87.00
913;DHT22;443;51.448;7.028;2022-10-26T00:08:45;15.90;85.70
913;DHT22;443;51.448;7.028;2022-10-26T00:11:13;15.80;84.90
913;DHT22;443;51.448;7.028;2022-10-26T00:13:40;15.80;85.30
913;DHT22;443;51.448;7.028;2022-10-26T00:16:08;15.90;87.10
913;DHT22;443;51.448;7.028;2022-10-26T00:18:37;15.90;85.40
913;DHT22;443;51.448;7.028;2022-10-26T00:21:04;15.90;87.00
913;DHT22;443;51.448;7.028;2022-10-26T00:23:32;15.90;87.20
913;DHT22;443;51.448;7.028;2022-10-26T00:25:59;15.90;86.40
913;DHT22;443;51.448;7.028;2022-10-26T00:28:26;15.90;86.00
913;DHT22;443;51.448;7.028;2022-10-26T00:30:53;15.90;86.90
913;DHT22;443;51.448;7.028;2022-10-26T00:33:20;15.90;86.60
913;DHT22;443;51.448;7.028;2022-10-26T00:35:52;15.90;86.40
913;DHT22;443;51.448;7.028;2022-10-26T00:38:19;15.90;85.80
913;DHT22;443;51.448;7.028;2022-10-26T00:40:46;15.90;87.00
913;DHT22;443;51.448;7.028;2022-10-26T00:43:15;15.90;86.90
913;DHT22;443;51.448;7.028;2022-10-26T00:45:43;15.90;86.10
913;DHT22;443;51.448;7.028;2022-10-26T00:48:14;15.90;86.10
913;DHT22;443;51.448;7.028;2022-10-26T00:50:44;15.90;86.00
913;DHT22;443;51.448;7.028;2022-10-26T00:53:14;15.90;86.00
913;DHT22;443;51.448;7.028;2022-10-26T00:55:45;15.80;86.10
913;DHT22;443;51.448;7.028;2022-10-26T00:58:13;15.90;86.50
913;DHT22;443;51.448;7.028;2022-10-26T01:00:41;15.90;86.20
913;DHT22;443;51.448;7.028;2022-10-26T01:03:10;15.90;86.70
913;DHT22;443;51.448;7.028;2022-10-26T01:05:39;15.90;87.00
913;DHT22;443;51.448;7.028;2022-10-26T01:08:07;15.90;87.00
913;DHT22;443;51.448;7.028;2022-10-26T01:10:37;15.90;86.10
913;DHT22;443;51.448;7.028;2022-10-26T01:13:04;15.90;86.00
913;DHT22;443;51.448;7.028;2022-10-26T01:15:41;15.90;87.00
913;DHT22;443;51.448;7.028;2022-10-26T01:18:17;16.00;87.20
913;DHT22;443;51.448;7.028;2022-10-26T01:21:12;15.90;86.40
913;DHT22;443;51.448;7.028;2022-10-26T01:27:03;15.90;86.00
913;DHT22;443;51.448;7.028;2022-10-26T01:32:36;16.00;86.70
913;DHT22;443;51.448;7.028;2022-10-26T01:35:08;15.90;86.90
913;DHT22;443;51.448;7.028;2022-10-26T01:37:40;15.90;86.70
913;DHT22;443;51.448;7.028;2022-10-26T01:40:14;16.00;86.50
913;DHT22;443;51.448;7.028;2022-10-26T01:42:45;15.90;87.20
913;DHT22;443;51.448;7.028;2022-10-26T01:45:14;16.00;86.30
913;DHT22;443;51.448;7.028;2022-10-26T01:47:44;16.00;87.20
913;DHT22;443;51.448;7.028;2022-10-26T01:50:11;16.00;86.90
913;DHT22;443;51.448;7.028;2022-10-26T01:52:38;16.00;86.60
913;DHT22;443;51.448;7.028;2022-10-26T01:58:36;15.90;85.70
913;DHT22;443;51.448;7.028;2022-10-26T02:01:20;15.90;86.70
913;DHT22;443;51.448;7.028;2022-10-26T02:03:57;15.90;86.10
913;DHT22;443;51.448;7.028;2022-10-26T02:06:30;16.00;86.40
913;DHT22;443;51.448;7.028;2022-10-26T02:09:09;15.90;85.70
913;DHT22;443;51.448;7.028;2022-10-26T02:11:40;16.00;86.60
913;DHT22;443;51.448;7.028;2022-10-26T02:14:13;16.00;86.20
913;DHT22;443;51.448;7.028;2022-10-26T02:16:50;16.00;86.70
913;DHT22;443;51.448;7.028;2022-10-26T02:19:26;16.00;86.50
913;DHT22;443;51.448;7.028;2022-10-26T02:22:02;16.00;86.50
913;DHT22;443;51.448;7.028;2022-10-26T02:24:30;16.00;86.60
913;DHT22;443;51.448;7.028;2022-10-26T02:27:00;16.00;86.00
913;DHT22;443;51.448;7.028;2022-10-26T02:29:30;16.00;86.40
913;DHT22;443;51.448;7.028;2022-10-26T02:31:58;16.00;85.90
913;DHT22;443;51.448;7.028;2022-10-26T02:34:28;16.10;86.60
913;DHT22;443;51.448;7.028;2022-10-26T02:36:57;16.10;86.30
913;DHT22;443;51.448;7.028;2022-10-26T02:39:26;16.10;86.00
913;DHT22;443;51.448;7.028;2022-10-26T02:41:59;16.10;85.80
913;DHT22;443;51.448;7.028;2022-10-26T02:44:28;16.10;86.50
913;DHT22;443;51.448;7.028;2022-10-26T02:46:56;16.10;85.90
913;DHT22;443;51.448;7.028;2022-10-26T02:49:23;16.10;86.20
913;DHT22;443;51.448;7.028;2022-10-26T02:51:57;16.00;85.90
913;DHT22;443;51.448;7.028;2022-10-26T02:54:38;16.20;86.50
913;DHT22;443;51.448;7.028;2022-10-26T02:57:11;16.30;87.40
913;DHT22;443;51.448;7.028;2022-10-26T02:59:41;16.30;86.60
913;DHT22;443;51.448;7.028;2022-10-26T03:02:10;16.40;86.90
913;DHT22;443;51.448;7.028;2022-10-26T03:04:37;16.60;87.60
913;DHT22;443;51.448;7.028;2022-10-26T03:07:05;16.50;85.00
913;DHT22;443;51.448;7.028;2022-10-26T03:09:32;16.60;86.60
913;DHT22;443;51.448;7.028;2022-10-26T03:11:59;16.70;87.00
913;DHT22;443;51.448;7.028;2022-10-26T03:14:25;16.70;85.40
913;DHT22;443;51.448;7.028;2022-10-26T03:16:52;16.60;86.20
913;DHT22;443;51.448;7.028;2022-10-26T03:19:19;16.60;85.10
913;DHT22;443;51.448;7.028;2022-10-26T03:21:46;16.50;86.60
913;DHT22;443;51.448;7.028;2022-10-26T03:24:14;16.50;86.40
913;DHT22;443;51.448;7.028;2022-10-26T03:26:41;16.60;85.20
913;DHT22;443;51.448;7.028;2022-10-26T03:29:08;16.50;85.30
913;DHT22;443;51.448;7.028;2022-10-26T03:31:34;16.40;84.70
913;DHT22;443;51.448;7.028;2022-10-26T03:34:01;16.60;85.60
913;DHT22;443;51.448;7.028;2022-10-26T03:36:28;16.60;85.10
913;DHT22;443;51.448;7.028;2022-10-26T03:38:55;16.70;86.80
913;DHT22;443;51.448;7.028;2022-10-26T03:41:23;16.80;85.90
913;DHT22;443;51.448;7.028;2022-10-26T03:43:50;16.90;86.40
913;DHT22;443;51.448;7.028;2022-10-26T03:46:17;16.90;85.70
913;DHT22;443;51.448;7.028;2022-10-26T03:48:43;17.00;86.20
913;DHT22;443;51.448;7.028;2022-10-26T03:51:10;17.00;85.50
913;DHT22;443;51.448;7.028;2022-10-26T03:53:37;17.00;84.70
913;DHT22;443;51.448;7.028;2022-10-26T03:56:04;17.10;85.80
913;DHT22;443;51.448;7.028;2022-10-26T03:58:33;17.10;85.50
913;DHT22;443;51.448;7.028;2022-10-26T04:00:59;17.00;86.10
913;DHT22;443;51.448;7.028;2022-10-26T04:03:26;17.10;84.60
913;DHT22;443;51.448;7.028;2022-10-26T04:05:53;17.20;85.90
913;DHT22;443;51.448;7.028;2022-10-26T04:08:20;17.20;85.30
913;DHT22;443;51.448;7.028;2022-10-26T04:10:46;17.20;85.50
913;DHT22;443;51.448;7.028;2022-10-26T04:13:13;17.20;85.40
913;DHT22;443;51.448;7.028;2022-10-26T04:15:41;17.20;85.10
913;DHT22;443;51.448;7.028;2022-10-26T04:18:09;17.20;85.50
913;DHT22;443;51.448;7.028;2022-10-26T04:20:38;17.30;85.20
913;DHT22;443;51.448;7.028;2022-10-26T04:23:08;17.20;84.80
913;DHT22;443;51.448;7.028;2022-10-26T04:25:35;17.30;85.50
913;DHT22;443;51.448;7.028;2022-10-26T04:28:03;17.30;85.30
913;DHT22;443;51.448;7.028;2022-10-26T04:30:32;17.30;85.20
913;DHT22;443;51.448;7.028;2022-10-26T04:33:00;17.40;85.40
913;DHT22;443;51.448;7.028;2022-10-26T04:35:27;17.30;84.60
913;DHT22;443;51.448;7.028;2022-10-26T04:37:56;17.30;84.30
913;DHT22;443;51.448;7.028;2022-10-26T04:40:24;17.20;84.60
913;DHT22;443;51.448;7.028;2022-10-26T04:42:51;17.20;84.70
913;DHT22;443;51.448;7.028;2022-10-26T04:45:17;17.20;83.80
913;DHT22;443;51.448;7.028;2022-10-26T04:47:44;17.30;84.80
913;DHT22;443;51.448;7.028;2022-10-26T04:50:12;17.40;85.70
913;DHT22;443;51.448;7.028;2022-10-26T04:52:40;17.40;84.60
913;DHT22;443;51.448;7.028;2022-10-26T04:55:07;17.40;84.70
913;DHT22;443;51.448;7.028;2022-10-26T04:57:34;17.40;85.40
913;DHT22;443;51.448;7.028;2022-10-26T05:00:02;17.40;84.30
913;DHT22;443;51.448;7.028;2022-10-26T05:02:29;17.40;84.50
913;DHT22;443;51.448;7.028;2022-10-26T05:04:56;17.40;84.70
913;DHT22;443;51.448;7.028;2022-10-26T05:07:24;17.40;84.60
913;DHT22;443;51.448;7.028;2022-10-26T05:09:51;17.40;84.80
913;DHT22;443;51.448;7.028;2022-10-26T05:12:18;17.40;84.80
913;DHT22;443;51.448;7.028;2022-10-26T05:14:44;17.50;84.60
913;DHT22;443;51.448;7.028;2022-10-26T05:17:11;17.50;84.30
913;DHT22;443;51.448;7.028;2022-10-26T05:19:38;17.50;84.20
913;DHT22;443;51.448;7.028;2022-10-26T05:22:05;17.50;84.40
913;DHT22;443;51.448;7.028;2022-10-26T05:24:33;17.50;84.70
913;DHT22;443;51.448;7.028;2022-10-26T05:27:00;17.50;85.70
913;DHT22;443;51.448;7.028;2022-10-26T05:29:26;17.60;84.30
913;DHT22;443;51.448;7.028;2022-10-26T05:31:53;17.60;84.70
913;DHT22;443;51.448;7.028;2022-10-26T05:34:20;17.60;84.00
913;DHT22;443;51.448;7.028;2022-10-26T05:36:47;17.60;84.70
913;DHT22;443;51.448;7.028;2022-10-26T05:39:13;17.60;84.70
913;DHT22;443;51.448;7.028;2022-10-26T05:41:41;17.60;84.30
913;DHT22;443;51.448;7.028;2022-10-26T05:44:08;17.60;83.20
913;DHT22;443;51.448;7.028;2022-10-26T05:46:35;17.60;83.60
913;DHT22;443;51.448;7.028;2022-10-26T05:49:02;17.70;84.60
913;DHT22;443;51.448;7.028;2022-10-26T05:51:28;17.70;84.30
913;DHT22;443;51.448;7.028;2022-10-26T05:53:55;17.70;84.30
913;DHT22;443;51.448;7.028;2022-10-26T05:56:33;17.70;83.50
913;DHT22;443;51.448;7.028;2022-10-26T05:59:03;17.70;83.20
913;DHT22;443;51.448;7.028;2022-10-26T06:01:36;17.70;84.70
913;DHT22;443;51.448;7.028;2022-10-26T06:04:14;17.70;84.40
913;DHT22;443;51.448;7.028;2022-10-26T06:06:46;17.70;84.30
913;DHT22;443;51.448;7.028;2022-10-26T06:09:17;17.60;83.30
913;DHT22;443;51.448;7.028;2022-10-26T06:11:44;17.70;84.40
913;DHT22;443;51.448;7.028;2022-10-26T06:14:13;17.70;84.40
913;DHT22;443;51.448;7.028;2022-10-26T06:16:51;17.80;84.30
913;DHT22;443;51.448;7.028;2022-10-26T06:19:38;17.70;83.90
913;DHT22;443;51.448;7.028;2022-10-26T06:22:21;17.80;84.50
913;DHT22;443;51.448;7.028;2022-10-26T06:24:58;17.80;84.50
913;DHT22;443;51.448;7.028;2022-10-26T06:27:31;17.80;84.20
913;DHT22;443;51.448;7.028;2022-10-26T06:30:05;17.80;84.20
913;DHT22;443;51.448;7.028;2022-10-26T06:32:34;17.80;84.00
913;DHT22;443;51.448;7.028;2022-10-26T06:35:12;17.80;84.50
913;DHT22;443;51.448;7.028;2022-10-26T06:37:41;17.70;83.90
913;DHT22;443;51.448;7.028;2022-10-26T06:40:11;17.80;83.50
913;DHT22;443;51.448;7.028;2022-10-26T06:42:38;17.80;83.60
913;DHT22;443;51.448;7.028;2022-10-26T06:45:11;17.80;84.30
913;DHT22;443;51.448;7.028;2022-10-26T06:47:42;17.80;84.30
913;DHT22;443;51.448;7.028;2022-10-26T06:50:19;17.80;84.00
913;DHT22;443;51.448;7.028;2022-10-26T06:52:57;17.80;84.20
913;DHT22;443;51.448;7.028;2022-10-26T06:55:29;17.80;84.00
913;DHT22;443;51.448;7.028;2022-10-26T06:58:01;17.80;84.20
913;DHT22;443;51.448;7.028;2022-10-26T07:00:30;17.80;84.20
913;DHT22;443;51.448;7.028;2022-10-26T07:02:57;17.90;84.30
913;DHT22;443;51.448;7.028;2022-10-26T07:05:24;17.90;84.20
913;DHT22;443;51.448;7.028;2022-10-26T07:07:51;17.80;83.60
913;DHT22;443;51.448;7.028;2022-10-26T07:10:18;17.90;84.10
913;DHT22;443;51.448;7.028;2022-10-26T07:12:44;17.90;83.80
913;DHT22;443;51.448;7.028;2022-10-26T07:15:11;17.90;84.10
913;DHT22;443;51.448;7.028;2022-10-26T07:17:43;17.90;83.80
913;DHT22;443;51.448;7.028;2022-10-26T07:20:11;17.90;83.30
913;DHT22;443;51.448;7.028;2022-10-26T07:22:38;17.90;83.90
913;DHT22;443;51.448;7.028;2022-10-26T07:25:06;17.90;83.10
913;DHT22;443;51.448;7.028;2022-10-26T07:27:32;17.90;83.80
913;DHT22;443;51.448;7.028;2022-10-26T07:29:59;17.90;83.70
913;DHT22;443;51.448;7.028;2022-10-26T07:32:26;17.90;83.80
913;DHT22;443;51.448;7.028;2022-10-26T07:34:54;17.90;83.90
913;DHT22;443;51.448;7.028;2022-10-26T07:37:21;17.90;83.70
913;DHT22;443;51.448;7.028;2022-10-26T07:39:48;17.90;83.90
913;DHT22;443;51.448;7.028;2022-10-26T07:42:15;17.90;83.50
913;DHT22;443;51.448;7.028;2022-10-26T07:44:41;17.90;83.80
913;DHT22;443;51.448;7.028;2022-10-26T07:47:08;17.90;83.20
913;DHT22;443;51.448;7.028;2022-10-26T07:49:35;17.90;83.20
913;DHT22;443;51.448;7.028;2022-10-26T07:52:03;17.90;83.00
913;DHT22;443;51.448;7.028;2022-10-26T07:54:31;18.00;83.30
913;DHT22;443;51.448;7.028;2022-10-26T07:56:57;17.90;83.60
913;DHT22;443;51.448;7.028;2022-10-26T07:59:25;17.90;82.90
913;DHT22;443;51.448;7.028;2022-10-26T08:01:52;18.00;83.60
913;DHT22;443;51.448;7.028;2022-10-26T08:04:19;18.00;83.30
913;DHT22;443;51.448;7.028;2022-10-26T08:06:46;18.00;83.50
913;DHT22;443;51.448;7.028;2022-10-26T08:09:14;18.00;83.30
913;DHT22;443;51.448;7.028;2022-10-26T08:11:41;18.00;82.80
913;DHT22;443;51.448;7.028;2022-10-26T08:14:09;18.00;83.40
913;DHT22;443;51.448;7.028;2022-10-26T08:16:37;17.90;80.50
913;DHT22;443;51.448;7.028;2022-10-26T08:19:04;18.00;82.60
913;DHT22;443;51.448;7.028;2022-10-26T08:21:31;18.00;82.20
913;DHT22;443;51.448;7.028;2022-10-26T08:23:58;18.00;82.20
913;DHT22;443;51.448;7.028;2022-10-26T08:26:26;18.00;82.30
913;DHT22;443;51.448;7.028;2022-10-26T08:28:53;18.00;83.40
913;DHT22;443;51.448;7.028;2022-10-26T08:31:20;18.00;83.20
913;DHT22;443;51.448;7.028;2022-10-26T08:33:47;18.00;82.70
913;DHT22;443;51.448;7.028;2022-10-26T08:36:14;18.00;82.80
913;DHT22;443;51.448;7.028;2022-10-26T08:38:46;18.00;82.70
913;DHT22;443;51.448;7.028;2022-10-26T08:41:13;18.10;82.90
913;DHT22;443;51.448;7.028;2022-10-26T08:43:45;18.00;81.80
913;DHT22;443;51.448;7.028;2022-10-26T08:46:16;18.10;82.20
913;DHT22;443;51.448;7.028;2022-10-26T08:48:47;18.00;82.00
913;DHT22;443;51.448;7.028;2022-10-26T08:51:17;18.10;81.30
913;DHT22;443;51.448;7.028;2022-10-26T08:53:49;18.10;82.20
913;DHT22;443;51.448;7.028;2022-10-26T08:56:21;18.10;80.70
913;DHT22;443;51.448;7.028;2022-10-26T08:58:54;18.10;82.80
913;DHT22;443;51.448;7.028;2022-10-26T09:01:22;18.10;81.40
913;DHT22;443;51.448;7.028;2022-10-26T09:03:49;18.10;80.40
913;DHT22;443;51.448;7.028;2022-10-26T09:06:22;18.10;81.60
913;DHT22;443;51.448;7.028;2022-10-26T09:08:58;18.10;82.30
913;DHT22;443;51.448;7.028;2022-10-26T09:11:40;18.10;82.20
913;DHT22;443;51.448;7.028;2022-10-26T09:14:17;18.10;81.60
913;DHT22;443;51.448;7.028;2022-10-26T09:16:52;18.10;80.50
913;DHT22;443;51.448;7.028;2022-10-26T09:19:33;18.20;81.40
913;DHT22;443;51.448;7.028;2022-10-26T09:22:06;18.20;81.50
913;DHT22;443;51.448;7.028;2022-10-26T09:24:38;18.20;80.40
913;DHT22;443;51.448;7.028;2022-10-26T09:27:15;18.20;81.90
913;DHT22;443;51.448;7.028;2022-10-26T09:29:47;18.20;81.00
913;DHT22;443;51.448;7.028;2022-10-26T09:32:18;18.20;82.20
913;DHT22;443;51.448;7.028;2022-10-26T09:34:48;18.20;80.70
913;DHT22;443;51.448;7.028;2022-10-26T09:37:18;18.20;81.50
913;DHT22;443;51.448;7.028;2022-10-26T09:39:52;18.20;82.20
913;DHT22;443;51.448;7.028;2022-10-26T09:42:24;18.20;82.60
913;DHT22;443;51.448;7.028;2022-10-26T09:44:56;18.20;81.00
913;DHT22;443;51.448;7.028;2022-10-26T09:47:31;18.20;82.30
913;DHT22;443;51.448;7.028;2022-10-26T09:50:04;18.20;82.60
913;DHT22;443;51.448;7.028;2022-10-26T09:52:32;18.20;82.90
913;DHT22;443;51.448;7.028;2022-10-26T09:54:59;18.20;82.30
913;DHT22;443;51.448;7.028;2022-10-26T09:57:26;18.20;82.70
913;DHT22;443;51.448;7.028;2022-10-26T09:59:55;18.20;82.40
913;DHT22;443;51.448;7.028;2022-10-26T10:02:36;18.20;82.60
913;DHT22;443;51.448;7.028;2022-10-26T10:05:19;18.20;81.10
913;DHT22;443;51.448;7.028;2022-10-26T10:07:47;18.30;82.00
913;DHT22;443;51.448;7.028;2022-10-26T10:10:15;18.20;82.20
913;DHT22;443;51.448;7.028;2022-10-26T10:12:43;18.30;82.00
913;DHT22;443;51.448;7.028;2022-10-26T10:15:20;18.30;82.50
913;DHT22;443;51.448;7.028;2022-10-26T10:17:51;18.20;81.20
913;DHT22;443;51.448;7.028;2022-10-26T10:20:26;18.30;82.10
913;DHT22;443;51.448;7.028;2022-10-26T10:22:55;18.30;82.10
913;DHT22;443;51.448;7.028;2022-10-26T10:25:32;18.30;81.40
913;DHT22;443;51.448;7.028;2022-10-26T10:27:59;18.30;82.00
913;DHT22;443;51.448;7.028;2022-10-26T10:30:30;18.30;82.00
913;DHT22;443;51.448;7.028;2022-10-26T10:33:05;18.30;82.30
913;DHT22;443;51.448;7.028;2022-10-26T10:35:33;18.30;81.30
913;DHT22;443;51.448;7.028;2022-10-26T10:38:00;18.30;81.70
913;DHT22;443;51.448;7.028;2022-10-26T10:40:28;18.40;81.10
913;DHT22;443;51.448;7.028;2022-10-26T10:43:04;18.40;81.10
913;DHT22;443;51.448;7.028;2022-10-26T10:45:34;18.40;81.30
913;DHT22;443;51.448;7.028;2022-10-26T10:48:03;18.40;81.10
913;DHT22;443;51.448;7.028;2022-10-26T10:50:31;18.30;82.10
913;DHT22;443;51.448;7.028;2022-10-26T10:53:14;18.30;81.90
913;DHT22;443;51.448;7.028;2022-10-26T10:55:51;18.30;82.20
913;DHT22;443;51.448;7.028;2022-10-26T10:58:26;18.30;81.30
913;DHT22;443;51.448;7.028;2022-10-26T11:00:56;18.40;81.30
913;DHT22;443;51.448;7.028;2022-10-26T11:03:36;18.40;81.00
913;DHT22;443;51.448;7.028;2022-10-26T11:06:11;18.40;81.30
913;DHT22;443;51.448;7.028;2022-10-26T11:08:43;18.40;81.10
913;DHT22;443;51.448;7.028;2022-10-26T11:11:14;18.40;81.40
913;DHT22;443;51.448;7.028;2022-10-26T11:13:48;18.40;81.70
913;DHT22;443;51.448;7.028;2022-10-26T11:16:21;18.40;82.00
913;DHT22;443;51.448;7.028;2022-10-26T11:18:53;18.40;81.50
913;DHT22;443;51.448;7.028;2022-10-26T11:21:25;18.40;81.40
913;DHT22;443;51.448;7.028;2022-10-26T11:24:02;18.50;81.40
913;DHT22;443;51.448;7.028;2022-10-26T11:26:40;18.50;81.30
913;DHT22;443;51.448;7.028;2022-10-26T11:29:17;18.50;81.50
913;DHT22;443;51.448;7.028;2022-10-26T11:31:50;18.50;81.40
913;DHT22;443;51.448;7.028;2022-10-26T11:34:25;18.50;81.70
913;DHT22;443;51.448;7.028;2022-10-26T11:36:56;18.50;81.40
913;DHT22;443;51.448;7.028;2022-10-26T11:39:30;18.50;81.60
913;DHT22;443;51.448;7.028;2022-10-26T11:42:02;18.50;81.40
913;DHT22;443;51.448;7.028;2022-10-26T11:44:36;18.50;81.60
913;DHT22;443;51.448;7.028;2022-10-26T11:47:11;18.50;81.20
913;DHT22;443;51.448;7.028;2022-10-26T11:49:43;18.60;81.30
913;DHT22;443;51.448;7.028;2022-10-26T11:52:16;18.50;81.40
913;DHT22;443;51.448;7.028;2022-10-26T11:54:48;18.60;81.40
913;DHT22;443;51.448;7.028;2022-10-26T11:57:17;18.60;81.10
913;DHT22;443;51.448;7.028;2022-10-26T11:59:48;18.70;81.10
913;DHT22;443;51.448;7.028;2022-10-26T12:02:19;18.60;81.10
913;DHT22;443;51.448;7.028;2022-10-26T12:04:50;18.60;81.10
913;DHT22;443;51.448;7.028;2022-10-26T12:07:23;18.60;81.20
913;DHT22;443;51.448;7.028;2022-10-26T12:09:51;18.60;81.10
913;DHT22;443;51.448;7.028;2022-10-26T12:12:24;18.60;81.10
913;DHT22;443;51.448;7.028;2022-10-26T12:14:58;18.60;81.20
913;DHT22;443;51.448;7.028;2022-10-26T12:17:34;18.60;81.20
913;DHT22;443;51.448;7.028;2022-10-26T12:20:09;18.60;81.00
913;DHT22;443;51.448;7.028;2022-10-26T12:22:39;18.60;81.40
913;DHT22;443;51.448;7.028;2022-10-26T12:25:18;18.60;81.60
913;DHT22;443;51.448;7.028;2022-10-26T12:27:51;18.60;81.40
913;DHT22;443;51.448;7.028;2022-10-26T12:30:28;18.60;81.60
913;DHT22;443;51.448;7.028;2022-10-26T12:32:57;18.60;81.30
913;DHT22;443;51.448;7.028;2022-10-26T12:35:41;18.70;81.10
913;DHT22;443;51.448;7.028;2022-10-26T12:41:19;18.80;80.80
913;DHT22;443;51.448;7.028;2022-10-26T12:43:46;18.80;80.70
913;DHT22;443;51.448;7.028;2022-10-26T12:46:43;18.80;80.80
913;DHT22;443;51.448;7.028;2022-10-26T12:52:45;18.80;80.80
913;DHT22;443;51.448;7.028;2022-10-26T12:55:46;18.70;80.90
913;DHT22;443;51.448;7.028;2022-10-26T13:07:15;18.80;80.70
913;DHT22;443;51.448;7.028;2022-10-26T13:09:50;18.80;80.80
913;DHT22;443;51.448;7.028;2022-10-26T13:12:19;18.90;80.80
913;DHT22;443;51.448;7.028;2022-10-26T13:15:01;18.80;80.60
913;DHT22;443;51.448;7.028;2022-10-26T13:17:31;18.90;80.70
913;DHT22;443;51.448;7.028;2022-10-26T13:20:00;18.90;80.50
913;DHT22;443;51.448;7.028;2022-10-26T13:22:28;18.90;80.20
913;DHT22;443;51.448;7.028;2022-10-26T13:24:59;18.90;80.30
913;DHT22;443;51.448;7.028;2022-10-26T13:27:42;19.00;80.60
913;DHT22;443;51.448;7.028;2022-10-26T13:32:59;18.90;80.20
913;DHT22;443;51.448;7.028;2022-10-26T13:35:27;19.00;80.30
913;DHT22;443;51.448;7.028;2022-10-26T13:37:55;19.10;79.90
913;DHT22;443;51.448;7.028;2022-10-26T13:40:25;19.10;79.70
913;DHT22;443;51.448;7.028;2022-10-26T13:42:54;19.10;79.70
913;DHT22;443;51.448;7.028;2022-10-26T13:45:25;19.10;79.70
913;DHT22;443;51.448;7.028;2022-10-26T13:47:56;19.20;79.40
913;DHT22;443;51.448;7.028;2022-10-26T13:50:27;19.20;79.30
913;DHT22;443;51.448;7.028;2022-10-26T13:52:56;19.30;79.10
913;DHT22;443;51.448;7.028;2022-10-26T13:55:30;19.20;79.10
913;DHT22;443;51.448;7.028;2022-10-26T13:58:08;19.30;78.90
913;DHT22;443;51.448;7.028;2022-10-26T14:00:39;19.30;78.90
913;DHT22;443;51.448;7.028;2022-10-26T14:03:12;19.30;78.90
913;DHT22;443;51.448;7.028;2022-10-26T14:05:41;19.40;78.80
913;DHT22;443;51.448;7.028;2022-10-26T14:08:16;19.30;78.70
913;DHT22;443;51.448;7.028;2022-10-26T14:10:51;19.30;78.90
913;DHT22;443;51.448;7.028;2022-10-26T14:13:21;19.20;78.90
913;DHT22;443;51.448;7.028;2022-10-26T14:15:49;19.20;78.90
913;DHT22;443;51.448;7.028;2022-10-26T14:18:18;19.30;78.90
913;DHT22;443;51.448;7.028;2022-10-26T14:20:49;19.30;78.80
913;DHT22;443;51.448;7.028;2022-10-26T14:23:25;19.30;78.70
913;DHT22;443;51.448;7.028;2022-10-26T14:25:54;19.40;78.50
913;DHT22;443;51.448;7.028;2022-10-26T14:28:22;19.40;78.50
913;DHT22;443;51.448;7.028;2022-10-26T14:30:49;19.50;78.10
913;DHT22;443;51.448;7.028;2022-10-26T14:33:17;19.50;78.30
913;DHT22;443;51.448;7.028;2022-10-26T14:35:46;19.60;78.00
913;DHT22;443;51.448;7.028;2022-10-26T14:38:17;19.50;78.00
913;DHT22;443;51.448;7.028;2022-10-26T14:40:44;19.60;78.10
913;DHT22;443;51.448;7.028;2022-10-26T14:43:17;19.40;78.00
913;DHT22;443;51.448;7.028;2022-10-26T14:45:48;19.40;78.40
913;DHT22;443;51.448;7.028;2022-10-26T14:48:21;19.40;78.50
913;DHT22;443;51.448;7.028;2022-10-26T14:51:08;19.40;78.40
913;DHT22;443;51.448;7.028;2022-10-26T14:53:37;19.50;78.20
913;DHT22;443;51.448;7.028;2022-10-26T14:56:15;19.40;78.20
913;DHT22;443;51.448;7.028;2022-10-26T14:58:44;19.40;78.50
913;DHT22;443;51.448;7.028;2022-10-26T15:01:25;19.40;78.50
913;DHT22;443;51.448;7.028;2022-10-26T15:03:54;19.30;78.60
913;DHT22;443;51.448;7.028;2022-10-26T15:06:46;19.30;78.60
913;DHT22;443;51.448;7.028;2022-10-26T15:09:37;19.40;78.50
913;DHT22;443;51.448;7.028;2022-10-26T15:12:05;19.40;78.50
913;DHT22;443;51.448;7.028;2022-10-26T15:14:35;19.30;78.70
913;DHT22;443;51.448;7.028;2022-10-26T15:17:02;19.30;79.10
913;DHT22;443;51.448;7.028;2022-10-26T15:19:29;19.20;78.90
913;DHT22;443;51.448;7.028;2022-10-26T15:21:56;19.20;79.10
913;DHT22;443;51.448;7.028;2022-10-26T15:24:29;19.20;79.20
913;DHT22;443;51.448;7.028;2022-10-26T15:26:56;19.10;79.20
913;DHT22;443;51.448;7.028;2022-10-26T15:29:42;19.10;79.40
913;DHT22;443;51.448;7.028;2022-10-26T15:32:33;19.10;79.70
913;DHT22;443;51.448;7.028;2022-10-26T15:35:32;19.00;79.80
913;DHT22;443;51.448;7.028;2022-10-26T15:37:59;19.00;80.00
913;DHT22;443;51.448;7.028;2022-10-26T15:40:27;19.00;80.10
913;DHT22;443;51.448;7.028;2022-10-26T15:42:58;19.00;80.20
913;DHT22;443;51.448;7.028;2022-10-26T15:45:28;18.90;80.40
913;DHT22;443;51.448;7.028;2022-10-26T15:47:57;18.90;80.30
913;DHT22;443;51.448;7.028;2022-10-26T15:50:26;18.90;80.40
913;DHT22;443;51.448;7.028;2022-10-26T15:53:00;18.90;80.40
913;DHT22;443;51.448;7.028;2022-10-26T15:55:27;18.90;80.50
913;DHT22;443;51.448;7.028;2022-10-26T15:57:55;18.90;80.40
913;DHT22;443;51.448;7.028;2022-10-26T16:00:22;18.90;80.30
913;DHT22;443;51.448;7.028;2022-10-26T16:02:50;18.90;80.30
913;DHT22;443;51.448;7.028;2022-10-26T16:05:17;18.90;80.40
913;DHT22;443;51.448;7.028;2022-10-26T16:07:45;18.90;80.30
913;DHT22;443;51.448;7.028;2022-10-26T16:10:16;18.90;80.30
913;DHT22;443;51.448;7.028;2022-10-26T16:12:43;18.90;80.30
913;DHT22;443;51.448;7.028;2022-10-26T16:15:16;18.90;80.40
913;DHT22;443;51.448;7.028;2022-10-26T16:17:43;18.90;80.50
913;DHT22;443;51.448;7.028;2022-10-26T16:20:14;18.90;80.50
913;DHT22;443;51.448;7.028;2022-10-26T16:22:41;18.90;80.50
913;DHT22;443;51.448;7.028;2022-10-26T16:25:16;18.90;80.60
913;DHT22;443;51.448;7.028;2022-10-26T16:27:44;18.80;80.60
913;DHT22;443;51.448;7.028;2022-10-26T16:30:12;18.80;80.60
913;DHT22;443;51.448;7.028;2022-10-26T16:32:40;18.80;80.50
913;DHT22;443;51.448;7.028;2022-10-26T16:35:08;18.80;80.60
913;DHT22;443;51.448;7.028;2022-10-26T16:37:36;18.80;80.70
913;DHT22;443;51.448;7.028;2022-10-26T16:40:04;18.80;80.70
913;DHT22;443;51.448;7.028;2022-10-26T16:42:31;18.80;80.80
913;DHT22;443;51.448;7.028;2022-10-26T16:44:58;18.80;80.60
913;DHT22;443;51.448;7.028;2022-10-26T16:47:25;18.90;80.80
913;DHT22;443;51.448;7.028;2022-10-26T16:49:53;18.80;80.80
913;DHT22;443;51.448;7.028;2022-10-26T16:52:20;18.80;80.60
913;DHT22;443;51.448;7.028;2022-10-26T16:54:48;18.90;80.60
913;DHT22;443;51.448;7.028;2022-10-26T16:57:15;18.90;80.60
913;DHT22;443;51.448;7.028;2022-10-26T16:59:41;18.90;80.70
913;DHT22;443;51.448;7.028;2022-10-26T17:02:10;18.80;80.50
913;DHT22;443;51.448;7.028;2022-10-26T17:04:39;18.90;80.40
913;DHT22;443;51.448;7.028;2022-10-26T17:07:05;18.90;80.50
913;DHT22;443;51.448;7.028;2022-10-26T17:09:32;18.90;80.30
913;DHT22;443;51.448;7.028;2022-10-26T17:12:00;18.90;80.40
913;DHT22;443;51.448;7.028;2022-10-26T17:14:27;18.80;80.60
913;DHT22;443;51.448;7.028;2022-10-26T17:16:54;18.90;80.60
913;DHT22;443;51.448;7.028;2022-10-26T17:19:21;18.80;80.60
913;DHT22;443;51.448;7.028;2022-10-26T17:21:47;18.80;80.60
913;DHT22;443;51.448;7.028;2022-10-26T17:24:14;18.80;81.00